Idledale, Colorado
Current Conditions -  °F | °C
As of 1:55 AM on Saturday 25 Oct 2014 (Local Time) from KBJC Reporting Station
Clear Clear  
Wind Chill: 59°   Ceiling: Unl
Heat Index: 59°   Visibility: 10mi
Dew Point: 19°   Wind: 3mph
Humidity: 22%   Direction: 270°W
Pressure: 30.22"   Gusts: NA
Location:  39.67°N, 105.25°W
Report Text: KBJC 250755Z AUTO 27003KT 10SM CLR 15/M07 A3022 RMK AO2
Loading
Personal Weather Stations






























Interactive Weather Map New forecast layout! Learn more

10-Day Weather Forecast

Advertisements
Track Severe Weather on mobile